< Typhoon 198207 1982 Season Typhoon 198209 >
Typhoon 198208 (WINONA)
General InformationTrack Information on Google MapsDetailed Wind InformationList of All Images || Disaster Info.ResourceGoogle EarthGE AnimationAtom FeedGeoJSON
Detalied Best Track (Time Zone = UTC)
Year Month Day Hour Lat. Long. Pressure (hPa) Wind (kt) Class Image Chart
1982 7 10 00 8.0 144.0 1008 0 2 Image Chart
1982 7 10 06 8.0 143.0 1008 0 2 Image Chart
1982 7 10 12 8.5 142.0 1008 0 2 Image Chart
1982 7 10 18 8.9 141.0 1008 0 2 Image Chart
1982 7 11 00 9.5 140.0 1008 0 2 Image Chart
1982 7 11 06 10.3 139.2 1008 0 2 Image Chart
1982 7 11 12 11.0 138.0 1008 0 2 Image Chart
1982 7 11 18 11.2 136.4 1008 0 2 Image Chart
1982 7 12 00 11.3 134.8 1008 0 2 Image Chart
1982 7 12 06 11.5 133.6 1006 0 2 Image Chart
1982 7 12 12 11.8 132.6 1006 0 2 Image Chart
1982 7 12 18 12.2 131.7 1004 0 2 Image Chart
1982 7 13 00 12.6 130.8 1002 0 2 Image Chart
1982 7 13 06 13.3 130.0 1000 0 2 Image Chart
1982 7 13 12 13.6 129.2 1000 0 2 Image Chart
1982 7 13 18 13.8 128.0 998 0 2 Image Chart
1982 7 14 00 14.0 126.8 992 40 3 Image Chart
1982 7 14 06 14.4 125.6 990 45 3 Image Chart
1982 7 14 12 14.7 124.5 985 50 4 Image Chart
1982 7 14 18 15.1 123.3 985 50 4 Image Chart
1982 7 15 00 15.3 122.2 985 50 4 Image Chart
1982 7 15 06 15.8 121.3 985 50 4 Image Chart
1982 7 15 12 16.2 120.2 990 45 3 Image Chart
1982 7 15 18 17.0 118.6 990 45 3 Image Chart
1982 7 16 00 17.9 116.7 990 45 3 Image Chart
1982 7 16 06 18.7 115.0 990 45 3 Image Chart
1982 7 16 12 19.3 113.7 990 45 3 Image Chart
1982 7 16 18 19.9 112.4 990 45 3 Image Chart
1982 7 17 00 20.5 111.0 992 45 3 Image Chart
1982 7 17 06 21.0 110.0 994 40 3 Image Chart
1982 7 17 12 21.3 109.0 996 40 3 Image Chart
1982 7 17 18 21.5 108.0 1000 0 2 Image Chart
Japan Meteorological Agency Best Track Data | Correction Date : 1992-10-21
< Typhoon 198207 1982 Season Typhoon 198209 >

Help